Wec Goya — CQIE5 — position and weather

sailwx.info

Track history (hours):
 
Tides and Currents Weather Stations Pressure Air Temp Water Temp Dewpoint Dewpoint Depression Visibility Wind Speed Wind Dir Waves Ship Positions

Wec Goya

Last reported at 2018-Aug-14 13:30 UTC. Time now 2018-Aug-14 13:47 UTC.
Position N 43°21' W 003°03'.

Length 135 m.

MMSI: 255805937.

Date/timePositionNaut miles runAvg speedWind from/ knotsBaromVisibWave heightAir tempDewpointWater temp
2018-Aug-14 13:30N 43°21' W 003°03'0 0.0
2018-Aug-14 13:00N 43°21' W 003°03'0 0.0
2018-Aug-14 12:30N 43°21' W 003°03'0 0.0
2018-Aug-14 12:00N 43°21' W 003°03'0 0.0
2018-Aug-14 11:30N 43°21' W 003°03'0 0.0
2018-Aug-14 11:00N 43°21' W 003°03'0 0.0
2018-Aug-14 10:30N 43°21' W 003°03'0 0.0
2018-Aug-14 10:00N 43°21' W 003°03'0 0.0
2018-Aug-14 09:30N 43°21' W 003°03'0 0.0
2018-Aug-14 09:00N 43°21' W 003°03'0 0.0
2018-Aug-14 08:30N 43°21' W 003°03'0 0.0
2018-Aug-14 08:00N 43°21' W 003°03'0 0.0
2018-Aug-14 07:30N 43°21' W 003°03'0 0.0
2018-Aug-14 07:00N 43°21' W 003°03'0 0.0
2018-Aug-14 06:30N 43°21' W 003°03'0 0.0
2018-Aug-14 06:00N 43°21' W 003°03'0 0.0
2018-Aug-14 05:30N 43°21' W 003°03'1 1.2
2018-Aug-14 05:00N 43°21' W 003°03'4 7.7
2018-Aug-14 04:30N 43°24' W 003°06'816.0
2018-Aug-14 04:00N 43°29' W 003°15'917.2
2018-Aug-14 03:30N 43°33' W 003°26'816.0
2018-Aug-14 03:00N 43°35' W 003°36'816.6
2018-Aug-14 02:30N 43°35' W 003°48'816.7
2018-Aug-14 02:00N 43°35' W 003°59'7411.5
2018-Aug-13 19:34N 43°33' W 005°41'0 0.0
2018-Aug-13 19:30N 43°33' W 005°41'0 0.0
2018-Aug-13 19:00N 43°33' W 005°41'0 0.0
2018-Aug-13 17:27N 43°33' W 005°41'0 0.0
2018-Aug-13 16:16N 43°33' W 005°41'0 0.0
2018-Aug-13 16:00N 43°33' W 005°41'0 0.0
2018-Aug-13 15:30N 43°33' W 005°41'0 0.0
2018-Aug-13 15:00N 43°33' W 005°41'0 0.0
2018-Aug-13 14:29N 43°33' W 005°41'0 0.0
2018-Aug-13 13:55N 43°33' W 005°41'0 0.0
2018-Aug-13 13:30N 43°33' W 005°41'0 0.0
2018-Aug-13 13:00N 43°33' W 005°41'0 0.0
2018-Aug-13 12:30N 43°33' W 005°41'0 0.0
2018-Aug-13 12:00N 43°33' W 005°41'0 0.0
2018-Aug-13 11:30N 43°33' W 005°41'0 0.0
2018-Aug-13 11:00N 43°33' W 005°41'0 0.0
2018-Aug-13 10:30N 43°33' W 005°41'0 0.0
2018-Aug-13 10:00N 43°33' W 005°41'0 0.0
2018-Aug-13 09:30N 43°33' W 005°41'0 0.0
2018-Aug-13 09:00N 43°33' W 005°41'0 0.0
2018-Aug-13 08:28N 43°33' W 005°41'0 0.0
2018-Aug-13 07:59N 43°33' W 005°41'0 0.0
2018-Aug-13 07:30N 43°33' W 005°41'0 0.0
2018-Aug-13 07:00N 43°33' W 005°41'0 0.0
2018-Aug-13 06:30N 43°33' W 005°41'0 0.0
2018-Aug-13 06:00N 43°33' W 005°41'0 0.0
2018-Aug-13 05:30N 43°33' W 005°41'0 0.0
2018-Aug-13 05:00N 43°33' W 005°41'0 0.1
2018-Aug-13 04:30N 43°33' W 005°41'2 3.2
2018-Aug-13 04:00N 43°35' W 005°40'5 9.9
2018-Aug-13 03:30N 43°40' W 005°43'510.5
2018-Aug-13 03:00N 43°44' W 005°47'510.0
2018-Aug-13 02:30N 43°44' W 005°54'510.0
2018-Aug-13 02:00N 43°45' W 006°00'149 4.0
2018-Aug-11 12:51N 42°15' W 008°43'3 8.1
2018-Aug-11 12:30N 42°14' W 008°47'14815.5
2018-Aug-11 02:58N 39°51' W 009°38'715.6
2018-Aug-11 02:30N 39°44' W 009°40'815.6
2018-Aug-11 01:59N 39°36' W 009°42'1215.3
2018-Aug-11 01:12N 39°24' W 009°45'315.8
2018-Aug-11 01:00N 39°21' W 009°46'816.0
2018-Aug-11 00:30N 39°13' W 009°47'816.0
2018-Aug-11 00:00N 39°05' W 009°48'816.2
2018-Aug-10 23:30N 38°57' W 009°49'816.4
2018-Aug-10 23:00N 38°49' W 009°50'816.1
2018-Aug-10 22:30N 38°41' W 009°51'715.0
2018-Aug-10 22:00N 38°35' W 009°46'816.0
2018-Aug-10 21:30N 38°29' W 009°39'815.8
2018-Aug-10 21:00N 38°23' W 009°32'816.1
2018-Aug-10 20:30N 38°18' W 009°24'816.0
2018-Aug-10 20:00N 38°13' W 009°17'815.8
2018-Aug-10 19:30N 38°07' W 009°10'816.0
2018-Aug-10 19:00N 38°01' W 009°02'816.0
2018-Aug-10 18:30N 37°56' W 008°55'3 6.7
2018-Aug-10 18:00N 37°56' W 008°51'0 0.0
2018-Aug-10 17:30N 37°56' W 008°51'0 0.0
2018-Aug-10 17:00N 37°56' W 008°51'0 0.0
2018-Aug-10 16:30N 37°56' W 008°51'0 0.0
2018-Aug-10 16:00N 37°56' W 008°51'0 0.0
2018-Aug-10 15:30N 37°56' W 008°51'0 0.0
2018-Aug-10 15:01N 37°56' W 008°51'0 0.0
2018-Aug-10 14:30N 37°56' W 008°51'0 0.0
2018-Aug-10 14:01N 37°56' W 008°51'0 0.0
2018-Aug-10 13:31N 37°56' W 008°51'0 0.0
2018-Aug-10 13:01N 37°56' W 008°51'0 0.0
2018-Aug-10 12:31N 37°56' W 008°51'0 0.0
2018-Aug-10 12:00N 37°56' W 008°51'0 0.0
2018-Aug-10 11:30N 37°56' W 008°51'1 1.2
2018-Aug-10 11:01N 37°55' W 008°50'4 7.8
2018-Aug-10 10:31N 37°51' W 008°51'1 1.6
2018-Aug-10 10:01N 37°51' W 008°52'1 1.2
2018-Aug-10 09:30N 37°52' W 008°52'0 0.9
2018-Aug-10 09:01N 37°51' W 008°52'5 9.4
2018-Aug-10 08:30N 37°48' W 008°56'5 9.6
2018-Aug-10 08:00N 37°44' W 009°00'5 9.7
2018-Aug-10 07:31N 37°40' W 009°04'611.1
2018-Aug-10 07:01N 37°36' W 009°09'611.6
2018-Aug-10 06:29N 37°32' W 009°14'611.4
2018-Aug-10 05:55N 37°27' W 009°19'611.5
2018-Aug-10 05:23N 37°22' W 009°24'49813.6
2018-Aug-08 16:46N 30°07' W 014°16'414.6
2018-Aug-08 16:27N 30°03' W 014°18'714.8
2018-Aug-08 16:00N 29°57' W 014°22'714.7
2018-Aug-08 15:30N 29°50' W 014°25'814.5
2018-Aug-08 14:58N 29°43' W 014°29'714.7
2018-Aug-08 14:30N 29°37' W 014°33'715.0
2018-Aug-08 14:00N 29°30' W 014°36'714.8
2018-Aug-08 13:30N 29°24' W 014°40'814.8
2018-Aug-08 13:00N 29°17' W 014°44'714.7
2018-Aug-08 12:30N 29°10' W 014°48'914.9
2018-Aug-08 11:55N 29°03' W 014°52'714.9
2018-Aug-08 11:26N 28°56' W 014°55'614.9
2018-Aug-08 11:00N 28°50' W 014°59'714.9
2018-Aug-08 10:30N 28°44' W 015°03'815.1
2018-Aug-08 10:00N 28°37' W 015°06'815.1
2018-Aug-08 09:30N 28°30' W 015°10'815.3
2018-Aug-08 09:00N 28°23' W 015°14'815.2
2018-Aug-08 08:30N 28°16' W 015°18'815.1
2018-Aug-08 08:00N 28°09' W 015°20'5 9.1
2018-Aug-08 07:31N 28°08' W 015°25'0 0.3
2018-Aug-08 07:01N 28°08' W 015°25'0 0.0
2018-Aug-08 06:30N 28°08' W 015°25'0 0.0
2018-Aug-08 06:01N 28°08' W 015°25'0 0.0
2018-Aug-08 05:31N 28°08' W 015°25'0 0.0
2018-Aug-08 05:01N 28°08' W 015°25'0 0.0
2018-Aug-08 04:30N 28°08' W 015°25'0 0.0
2018-Aug-08 04:01N 28°08' W 015°25'0 0.0
2018-Aug-08 03:31N 28°08' W 015°25'0 0.0
2018-Aug-08 03:00N 28°08' W 015°25'0 0.0
2018-Aug-08 02:30N 28°08' W 015°25'0 0.0
2018-Aug-08 02:00N 28°08' W 015°25'0 0.0
2018-Aug-08 01:30N 28°08' W 015°25'0 0.0
2018-Aug-08 01:00N 28°08' W 015°25'0 0.0
2018-Aug-08 00:30N 28°08' W 015°25'0 0.0
2018-Aug-08 00:00N 28°08' W 015°25'0 0.0
2018-Aug-07 23:29N 28°08' W 015°25'0 0.0
2018-Aug-07 23:00N 28°08' W 015°25'0 0.0
2018-Aug-07 22:30N 28°08' W 015°25'0 0.0
2018-Aug-07 22:00N 28°08' W 015°25'0 0.0
2018-Aug-07 21:30N 28°08' W 015°25'0 0.0
2018-Aug-07 20:59N 28°08' W 015°25'0 0.0
2018-Aug-07 20:30N 28°08' W 015°25'0 0.0
2018-Aug-07 20:01N 28°08' W 015°25'0 0.0
2018-Aug-07 19:31N 28°08' W 015°25'0 0.0
2018-Aug-07 19:01N 28°08' W 015°25'0 0.0
2018-Aug-07 18:31N 28°08' W 015°25'1 2.4
2018-Aug-07 18:00N 28°07' W 015°24'510.5
2018-Aug-07 17:31N 28°12' W 015°24'916.7
2018-Aug-07 17:00N 28°15' W 015°33'816.6
2018-Aug-07 16:31N 28°18' W 015°42'816.1
2018-Aug-07 16:01N 28°21' W 015°50'816.5
2018-Aug-07 15:31N 28°23' W 015°59'917.2
2018-Aug-07 15:01N 28°26' W 016°08'610.9
2018-Aug-07 14:30N 28°29' W 016°14'0 0.0
2018-Aug-07 13:41N 28°29' W 016°14'0 0.0
2018-Aug-07 13:29N 28°29' W 016°14'0 0.0
2018-Aug-07 12:59N 28°29' W 016°14'0 0.0
2018-Aug-07 12:29N 28°29' W 016°14'0 0.0
2018-Aug-07 11:58N 28°29' W 016°14'0 0.0
2018-Aug-07 11:28N 28°29' W 016°14'0 0.0
2018-Aug-07 10:58N 28°29' W 016°14'0 0.0
2018-Aug-07 10:28N 28°29' W 016°14'0 0.0
2018-Aug-07 09:57N 28°29' W 016°14'0 0.0
2018-Aug-07 09:27N 28°29' W 016°14'0 0.0
2018-Aug-07 09:00N 28°29' W 016°14'0 0.0
2018-Aug-07 08:30N 28°29' W 016°14'0 0.0
2018-Aug-07 07:59N 28°29' W 016°14'0 0.0
2018-Aug-07 07:29N 28°29' W 016°14'0 0.1
2018-Aug-07 07:00N 28°29' W 016°14'0 0.1
2018-Aug-07 06:27N 28°29' W 016°14'0 0.0
2018-Aug-07 05:56N 28°29' W 016°14'0 0.0
2018-Aug-07 05:29N 28°29' W 016°14'0 0.0
2018-Aug-07 04:59N 28°29' W 016°14'1 1.4
2018-Aug-07 04:30N 28°29' W 016°13'714.1
2018-Aug-07 04:00N 28°30' W 016°06'816.0
2018-Aug-07 03:30N 28°35' W 015°59'1016.7
2018-Aug-07 02:55N 28°41' W 015°50'716.6
2018-Aug-07 02:30N 28°46' W 015°43'816.5
2018-Aug-07 02:00N 28°51' W 015°36'816.4
2018-Aug-07 01:30N 28°56' W 015°29'816.4
2018-Aug-07 00:59N 29°01' W 015°21'816.3
2018-Aug-07 00:30N 29°06' W 015°14'816.4
2018-Aug-07 00:00N 29°11' W 015°07'816.6
2018-Aug-06 23:30N 29°16' W 014°59'816.7
2018-Aug-06 23:00N 29°21' W 014°51'816.6
2018-Aug-06 22:30N 29°26' W 014°44'816.6
2018-Aug-06 22:00N 29°32' W 014°37'816.6
2018-Aug-06 21:30N 29°37' W 014°29'916.6
2018-Aug-06 20:59N 29°42' W 014°21'816.8
2018-Aug-06 20:30N 29°47' W 014°14'816.6
2018-Aug-06 20:00N 29°52' W 014°06'816.3
2018-Aug-06 19:30N 29°57' W 013°59'816.5
2018-Aug-06 19:00N 30°02' W 013°51'816.5
2018-Aug-06 18:30N 30°07' W 013°44'816.4
2018-Aug-06 18:00N 30°12' W 013°36'816.4
2018-Aug-06 17:30N 30°17' W 013°29'816.3
2018-Aug-06 17:00N 30°22' W 013°22'916.6
2018-Aug-06 16:28N 30°27' W 013°13'816.8
2018-Aug-06 16:00N 30°32' W 013°06'916.9
2018-Aug-06 15:29N 30°38' W 012°58'816.9
2018-Aug-06 15:00N 30°43' W 012°51'816.9
2018-Aug-06 14:30N 30°48' W 012°43'816.8
2018-Aug-06 14:00N 30°54' W 012°36'816.7
2018-Aug-06 13:30N 30°59' W 012°28'816.7
2018-Aug-06 13:00N 31°04' W 012°20'817.0
2018-Aug-06 12:30N 31°09' W 012°12'916.9
2018-Aug-06 12:00N 31°14' W 012°04'916.9
2018-Aug-06 11:29N 31°19' W 011°56'816.9
2018-Aug-06 11:00N 31°25' W 011°49'816.8
2018-Aug-06 10:30N 31°30' W 011°41'816.8
2018-Aug-06 10:00N 31°35' W 011°33'817.1
2018-Aug-06 09:30N 31°40' W 011°25'917.0
2018-Aug-06 09:00N 31°45' W 011°18'817.0
2018-Aug-06 08:30N 31°51' W 011°10'917.1
2018-Aug-06 08:00N 31°56' W 011°02'917.1
2018-Aug-06 07:30N 32°01' W 010°54'916.9
2018-Aug-06 07:00N 32°06' W 010°46'816.8
2018-Aug-06 06:30N 32°12' W 010°38'916.7
2018-Aug-06 05:59N 32°17' W 010°30'816.5
2018-Aug-06 05:30N 32°22' W 010°23'816.6
2018-Aug-06 05:00N 32°27' W 010°15'816.5
2018-Aug-06 04:30N 32°32' W 010°07'816.8
2018-Aug-06 04:00N 32°37' W 009°59'917.1
2018-Aug-06 03:30N 32°42' W 009°51'816.8
2018-Aug-06 03:00N 32°48' W 009°44'816.9
2018-Aug-06 02:30N 32°53' W 009°36'917.1
2018-Aug-06 02:00N 32°58' W 009°28'1017.1
2018-Aug-06 01:27N 33°03' W 009°18'4417.3
2018-Aug-05 22:53N 33°23' W 008°31'616.8
2018-Aug-05 22:30N 33°26' W 008°24'44 1.5
2018-Aug-04 17:11N 33°40' W 007°34'  
Track history (hours):
 
Tides and Currents Weather Stations Pressure Air Temp Water Temp Dewpoint Dewpoint Depression Visibility Wind Speed Wind Dir Waves Ship Positions

Wec Goya

Last reported at 2018-Aug-14 13:30 UTC. Time now 2018-Aug-14 13:47 UTC.
Position N 43°21' W 003°03'.

Length 135 m.

MMSI: 255805937.

Date/timePositionNaut miles runAvg speedWind from/ knotsBaromVisibWave heightAir tempDewpointWater temp
2018-Aug-14 13:30N 43°21' W 003°03'0 0.0
2018-Aug-14 13:00N 43°21' W 003°03'0 0.0
2018-Aug-14 12:30N 43°21' W 003°03'0 0.0
2018-Aug-14 12:00N 43°21' W 003°03'0 0.0
2018-Aug-14 11:30N 43°21' W 003°03'0 0.0
2018-Aug-14 11:00N 43°21' W 003°03'0 0.0
2018-Aug-14 10:30N 43°21' W 003°03'0 0.0
2018-Aug-14 10:00N 43°21' W 003°03'0 0.0
2018-Aug-14 09:30N 43°21' W 003°03'0 0.0
2018-Aug-14 09:00N 43°21' W 003°03'0 0.0
2018-Aug-14 08:30N 43°21' W 003°03'0 0.0
2018-Aug-14 08:00N 43°21' W 003°03'0 0.0
2018-Aug-14 07:30N 43°21' W 003°03'0 0.0
2018-Aug-14 07:00N 43°21' W 003°03'0 0.0
2018-Aug-14 06:30N 43°21' W 003°03'0 0.0
2018-Aug-14 06:00N 43°21' W 003°03'0 0.0
2018-Aug-14 05:30N 43°21' W 003°03'1 1.2
2018-Aug-14 05:00N 43°21' W 003°03'4 7.7
2018-Aug-14 04:30N 43°24' W 003°06'816.0
2018-Aug-14 04:00N 43°29' W 003°15'917.2
2018-Aug-14 03:30N 43°33' W 003°26'816.0
2018-Aug-14 03:00N 43°35' W 003°36'816.6
2018-Aug-14 02:30N 43°35' W 003°48'816.7
2018-Aug-14 02:00N 43°35' W 003°59'7411.5
2018-Aug-13 19:34N 43°33' W 005°41'0 0.0
2018-Aug-13 19:30N 43°33' W 005°41'0 0.0
2018-Aug-13 19:00N 43°33' W 005°41'0 0.0
2018-Aug-13 17:27N 43°33' W 005°41'0 0.0
2018-Aug-13 16:16N 43°33' W 005°41'0 0.0
2018-Aug-13 16:00N 43°33' W 005°41'0 0.0
2018-Aug-13 15:30N 43°33' W 005°41'0 0.0
2018-Aug-13 15:00N 43°33' W 005°41'0 0.0
2018-Aug-13 14:29N 43°33' W 005°41'0 0.0
2018-Aug-13 13:55N 43°33' W 005°41'0 0.0
2018-Aug-13 13:30N 43°33' W 005°41'0 0.0
2018-Aug-13 13:00N 43°33' W 005°41'0 0.0
2018-Aug-13 12:30N 43°33' W 005°41'0 0.0
2018-Aug-13 12:00N 43°33' W 005°41'0 0.0
2018-Aug-13 11:30N 43°33' W 005°41'0 0.0
2018-Aug-13 11:00N 43°33' W 005°41'0 0.0
2018-Aug-13 10:30N 43°33' W 005°41'0 0.0
2018-Aug-13 10:00N 43°33' W 005°41'0 0.0
2018-Aug-13 09:30N 43°33' W 005°41'0 0.0
2018-Aug-13 09:00N 43°33' W 005°41'0 0.0
2018-Aug-13 08:28N 43°33' W 005°41'0 0.0
2018-Aug-13 07:59N 43°33' W 005°41'0 0.0
2018-Aug-13 07:30N 43°33' W 005°41'0 0.0
2018-Aug-13 07:00N 43°33' W 005°41'0 0.0
2018-Aug-13 06:30N 43°33' W 005°41'0 0.0
2018-Aug-13 06:00N 43°33' W 005°41'0 0.0
2018-Aug-13 05:30N 43°33' W 005°41'0 0.0
2018-Aug-13 05:00N 43°33' W 005°41'0 0.1
2018-Aug-13 04:30N 43°33' W 005°41'2 3.2
2018-Aug-13 04:00N 43°35' W 005°40'5 9.9
2018-Aug-13 03:30N 43°40' W 005°43'510.5
2018-Aug-13 03:00N 43°44' W 005°47'510.0
2018-Aug-13 02:30N 43°44' W 005°54'510.0
2018-Aug-13 02:00N 43°45' W 006°00'149 4.0
2018-Aug-11 12:51N 42°15' W 008°43'3 8.1
2018-Aug-11 12:30N 42°14' W 008°47'14815.5
2018-Aug-11 02:58N 39°51' W 009°38'715.6
2018-Aug-11 02:30N 39°44' W 009°40'815.6
2018-Aug-11 01:59N 39°36' W 009°42'1215.3
2018-Aug-11 01:12N 39°24' W 009°45'315.8
2018-Aug-11 01:00N 39°21' W 009°46'816.0
2018-Aug-11 00:30N 39°13' W 009°47'816.0
2018-Aug-11 00:00N 39°05' W 009°48'816.2
2018-Aug-10 23:30N 38°57' W 009°49'816.4
2018-Aug-10 23:00N 38°49' W 009°50'816.1
2018-Aug-10 22:30N 38°41' W 009°51'715.0
2018-Aug-10 22:00N 38°35' W 009°46'816.0
2018-Aug-10 21:30N 38°29' W 009°39'815.8
2018-Aug-10 21:00N 38°23' W 009°32'816.1
2018-Aug-10 20:30N 38°18' W 009°24'816.0
2018-Aug-10 20:00N 38°13' W 009°17'815.8
2018-Aug-10 19:30N 38°07' W 009°10'816.0
2018-Aug-10 19:00N 38°01' W 009°02'816.0
2018-Aug-10 18:30N 37°56' W 008°55'3 6.7
2018-Aug-10 18:00N 37°56' W 008°51'0 0.0
2018-Aug-10 17:30N 37°56' W 008°51'0 0.0
2018-Aug-10 17:00N 37°56' W 008°51'0 0.0
2018-Aug-10 16:30N 37°56' W 008°51'0 0.0
2018-Aug-10 16:00N 37°56' W 008°51'0 0.0
2018-Aug-10 15:30N 37°56' W 008°51'0 0.0
2018-Aug-10 15:01N 37°56' W 008°51'0 0.0
2018-Aug-10 14:30N 37°56' W 008°51'0 0.0
2018-Aug-10 14:01N 37°56' W 008°51'0 0.0
2018-Aug-10 13:31N 37°56' W 008°51'0 0.0
2018-Aug-10 13:01N 37°56' W 008°51'0 0.0
2018-Aug-10 12:31N 37°56' W 008°51'0 0.0
2018-Aug-10 12:00N 37°56' W 008°51'0 0.0
2018-Aug-10 11:30N 37°56' W 008°51'1 1.2
2018-Aug-10 11:01N 37°55' W 008°50'4 7.8
2018-Aug-10 10:31N 37°51' W 008°51'1 1.6
2018-Aug-10 10:01N 37°51' W 008°52'1 1.2
2018-Aug-10 09:30N 37°52' W 008°52'0 0.9
2018-Aug-10 09:01N 37°51' W 008°52'5 9.4
2018-Aug-10 08:30N 37°48' W 008°56'5 9.6
2018-Aug-10 08:00N 37°44' W 009°00'5 9.7
2018-Aug-10 07:31N 37°40' W 009°04'611.1
2018-Aug-10 07:01N 37°36' W 009°09'611.6
2018-Aug-10 06:29N 37°32' W 009°14'611.4
2018-Aug-10 05:55N 37°27' W 009°19'611.5
2018-Aug-10 05:23N 37°22' W 009°24'49813.6
2018-Aug-08 16:46N 30°07' W 014°16'414.6
2018-Aug-08 16:27N 30°03' W 014°18'714.8
2018-Aug-08 16:00N 29°57' W 014°22'714.7
2018-Aug-08 15:30N 29°50' W 014°25'814.5
2018-Aug-08 14:58N 29°43' W 014°29'714.7
2018-Aug-08 14:30N 29°37' W 014°33'715.0
2018-Aug-08 14:00N 29°30' W 014°36'714.8
2018-Aug-08 13:30N 29°24' W 014°40'814.8
2018-Aug-08 13:00N 29°17' W 014°44'714.7
2018-Aug-08 12:30N 29°10' W 014°48'914.9
2018-Aug-08 11:55N 29°03' W 014°52'714.9
2018-Aug-08 11:26N 28°56' W 014°55'614.9
2018-Aug-08 11:00N 28°50' W 014°59'714.9
2018-Aug-08 10:30N 28°44' W 015°03'815.1
2018-Aug-08 10:00N 28°37' W 015°06'815.1
2018-Aug-08 09:30N 28°30' W 015°10'815.3
2018-Aug-08 09:00N 28°23' W 015°14'815.2
2018-Aug-08 08:30N 28°16' W 015°18'815.1
2018-Aug-08 08:00N 28°09' W 015°20'5 9.1
2018-Aug-08 07:31N 28°08' W 015°25'0 0.3
2018-Aug-08 07:01N 28°08' W 015°25'0 0.0
2018-Aug-08 06:30N 28°08' W 015°25'0 0.0
2018-Aug-08 06:01N 28°08' W 015°25'0 0.0
2018-Aug-08 05:31N 28°08' W 015°25'0 0.0
2018-Aug-08 05:01N 28°08' W 015°25'0 0.0
2018-Aug-08 04:30N 28°08' W 015°25'0 0.0
2018-Aug-08 04:01N 28°08' W 015°25'0 0.0
2018-Aug-08 03:31N 28°08' W 015°25'0 0.0
2018-Aug-08 03:00N 28°08' W 015°25'0 0.0
2018-Aug-08 02:30N 28°08' W 015°25'0 0.0
2018-Aug-08 02:00N 28°08' W 015°25'0 0.0
2018-Aug-08 01:30N 28°08' W 015°25'0 0.0
2018-Aug-08 01:00N 28°08' W 015°25'0 0.0
2018-Aug-08 00:30N 28°08' W 015°25'0 0.0
2018-Aug-08 00:00N 28°08' W 015°25'0 0.0
2018-Aug-07 23:29N 28°08' W 015°25'0 0.0
2018-Aug-07 23:00N 28°08' W 015°25'0 0.0
2018-Aug-07 22:30N 28°08' W 015°25'0 0.0
2018-Aug-07 22:00N 28°08' W 015°25'0 0.0
2018-Aug-07 21:30N 28°08' W 015°25'0 0.0
2018-Aug-07 20:59N 28°08' W 015°25'0 0.0
2018-Aug-07 20:30N 28°08' W 015°25'0 0.0
2018-Aug-07 20:01N 28°08' W 015°25'0 0.0
2018-Aug-07 19:31N 28°08' W 015°25'0 0.0
2018-Aug-07 19:01N 28°08' W 015°25'0 0.0
2018-Aug-07 18:31N 28°08' W 015°25'1 2.4
2018-Aug-07 18:00N 28°07' W 015°24'510.5
2018-Aug-07 17:31N 28°12' W 015°24'916.7
2018-Aug-07 17:00N 28°15' W 015°33'816.6
2018-Aug-07 16:31N 28°18' W 015°42'816.1
2018-Aug-07 16:01N 28°21' W 015°50'816.5
2018-Aug-07 15:31N 28°23' W 015°59'917.2
2018-Aug-07 15:01N 28°26' W 016°08'610.9
2018-Aug-07 14:30N 28°29' W 016°14'0 0.0
2018-Aug-07 13:41N 28°29' W 016°14'0 0.0
2018-Aug-07 13:29N 28°29' W 016°14'0 0.0
2018-Aug-07 12:59N 28°29' W 016°14'0 0.0
2018-Aug-07 12:29N 28°29' W 016°14'0 0.0
2018-Aug-07 11:58N 28°29' W 016°14'0 0.0
2018-Aug-07 11:28N 28°29' W 016°14'0 0.0
2018-Aug-07 10:58N 28°29' W 016°14'0 0.0
2018-Aug-07 10:28N 28°29' W 016°14'0 0.0
2018-Aug-07 09:57N 28°29' W 016°14'0 0.0
2018-Aug-07 09:27N 28°29' W 016°14'0 0.0
2018-Aug-07 09:00N 28°29' W 016°14'0 0.0
2018-Aug-07 08:30N 28°29' W 016°14'0 0.0
2018-Aug-07 07:59N 28°29' W 016°14'0 0.0
2018-Aug-07 07:29N 28°29' W 016°14'0 0.1
2018-Aug-07 07:00N 28°29' W 016°14'0 0.1
2018-Aug-07 06:27N 28°29' W 016°14'0 0.0
2018-Aug-07 05:56N 28°29' W 016°14'0 0.0
2018-Aug-07 05:29N 28°29' W 016°14'0 0.0
2018-Aug-07 04:59N 28°29' W 016°14'1 1.4
2018-Aug-07 04:30N 28°29' W 016°13'714.1
2018-Aug-07 04:00N 28°30' W 016°06'816.0
2018-Aug-07 03:30N 28°35' W 015°59'1016.7
2018-Aug-07 02:55N 28°41' W 015°50'716.6
2018-Aug-07 02:30N 28°46' W 015°43'816.5
2018-Aug-07 02:00N 28°51' W 015°36'816.4
2018-Aug-07 01:30N 28°56' W 015°29'816.4
2018-Aug-07 00:59N 29°01' W 015°21'816.3
2018-Aug-07 00:30N 29°06' W 015°14'816.4
2018-Aug-07 00:00N 29°11' W 015°07'816.6
2018-Aug-06 23:30N 29°16' W 014°59'816.7
2018-Aug-06 23:00N 29°21' W 014°51'816.6
2018-Aug-06 22:30N 29°26' W 014°44'816.6
2018-Aug-06 22:00N 29°32' W 014°37'816.6
2018-Aug-06 21:30N 29°37' W 014°29'916.6
2018-Aug-06 20:59N 29°42' W 014°21'816.8
2018-Aug-06 20:30N 29°47' W 014°14'816.6
2018-Aug-06 20:00N 29°52' W 014°06'816.3
2018-Aug-06 19:30N 29°57' W 013°59'816.5
2018-Aug-06 19:00N 30°02' W 013°51'816.5
2018-Aug-06 18:30N 30°07' W 013°44'816.4
2018-Aug-06 18:00N 30°12' W 013°36'816.4
2018-Aug-06 17:30N 30°17' W 013°29'816.3
2018-Aug-06 17:00N 30°22' W 013°22'916.6
2018-Aug-06 16:28N 30°27' W 013°13'816.8
2018-Aug-06 16:00N 30°32' W 013°06'916.9
2018-Aug-06 15:29N 30°38' W 012°58'816.9
2018-Aug-06 15:00N 30°43' W 012°51'816.9
2018-Aug-06 14:30N 30°48' W 012°43'816.8
2018-Aug-06 14:00N 30°54' W 012°36'816.7
2018-Aug-06 13:30N 30°59' W 012°28'816.7
2018-Aug-06 13:00N 31°04' W 012°20'817.0
2018-Aug-06 12:30N 31°09' W 012°12'916.9
2018-Aug-06 12:00N 31°14' W 012°04'916.9
2018-Aug-06 11:29N 31°19' W 011°56'816.9
2018-Aug-06 11:00N 31°25' W 011°49'816.8
2018-Aug-06 10:30N 31°30' W 011°41'816.8
2018-Aug-06 10:00N 31°35' W 011°33'817.1
2018-Aug-06 09:30N 31°40' W 011°25'917.0
2018-Aug-06 09:00N 31°45' W 011°18'817.0
2018-Aug-06 08:30N 31°51' W 011°10'917.1
2018-Aug-06 08:00N 31°56' W 011°02'917.1
2018-Aug-06 07:30N 32°01' W 010°54'916.9
2018-Aug-06 07:00N 32°06' W 010°46'816.8
2018-Aug-06 06:30N 32°12' W 010°38'916.7
2018-Aug-06 05:59N 32°17' W 010°30'816.5
2018-Aug-06 05:30N 32°22' W 010°23'816.6
2018-Aug-06 05:00N 32°27' W 010°15'816.5
2018-Aug-06 04:30N 32°32' W 010°07'816.8
2018-Aug-06 04:00N 32°37' W 009°59'917.1
2018-Aug-06 03:30N 32°42' W 009°51'816.8
2018-Aug-06 03:00N 32°48' W 009°44'816.9
2018-Aug-06 02:30N 32°53' W 009°36'917.1
2018-Aug-06 02:00N 32°58' W 009°28'1017.1
2018-Aug-06 01:27N 33°03' W 009°18'4417.3
2018-Aug-05 22:53N 33°23' W 008°31'616.8
2018-Aug-05 22:30N 33°26' W 008°24'44 1.5
2018-Aug-04 17:11N 33°40' W 007°34'  

Dump ship's entire track history